createdAt,value
2019-01-27T00:01:13.218Z,8.37
2019-01-27T00:03:43.048Z,8.30
2019-01-27T00:06:12.598Z,8.26
2019-01-27T00:08:42.241Z,8.23
2019-01-27T00:11:11.724Z,8.24
2019-01-27T00:13:41.277Z,8.28
2019-01-27T00:16:10.841Z,8.25
2019-01-27T00:18:40.326Z,8.28
2019-01-27T00:21:09.799Z,8.29
2019-01-27T00:23:39.292Z,8.26
2019-01-27T00:26:08.854Z,8.40
2019-01-27T00:28:38.343Z,8.41
2019-01-27T00:31:07.829Z,8.37
2019-01-27T00:33:37.308Z,8.39
2019-01-27T00:36:06.866Z,8.43
2019-01-27T00:38:36.367Z,8.48
2019-01-27T00:41:05.919Z,8.51
2019-01-27T00:43:35.488Z,8.52
2019-01-27T00:46:05.074Z,8.44
2019-01-27T00:48:34.556Z,8.47
2019-01-27T00:51:04.120Z,8.53
2019-01-27T00:53:34.585Z,8.50
2019-01-27T00:56:04.266Z,8.56
2019-01-27T00:58:33.740Z,8.51
2019-01-27T01:01:03.704Z,8.53
2019-01-27T01:03:33.186Z,8.53
2019-01-27T01:06:03.992Z,8.60
2019-01-27T01:08:33.535Z,8.58
2019-01-27T01:11:03.996Z,8.55
2019-01-27T01:13:33.466Z,8.55
2019-01-27T01:16:02.941Z,8.59
2019-01-27T01:18:32.411Z,8.64
2019-01-27T01:21:01.897Z,8.60
2019-01-27T01:23:31.442Z,8.45
2019-01-27T01:26:01.078Z,8.52
2019-01-27T01:28:30.555Z,8.61
2019-01-27T01:31:00.027Z,8.71
2019-01-27T01:33:29.498Z,8.73
2019-01-27T01:35:59.052Z,8.69
2019-01-27T01:38:28.520Z,8.70
2019-01-27T01:40:58.001Z,8.70
2019-01-27T01:43:27.472Z,8.75
2019-01-27T01:45:56.967Z,8.72
2019-01-27T01:48:27.511Z,8.77
2019-01-27T01:50:57.007Z,8.85
2019-01-27T01:53:26.495Z,8.79
2019-01-27T01:55:56.011Z,8.76
2019-01-27T01:58:25.559Z,8.56
2019-01-27T02:00:55.035Z,8.55
2019-01-27T02:03:24.574Z,8.53
2019-01-27T02:05:54.057Z,8.51
2019-01-27T02:08:23.550Z,8.48
2019-01-27T02:10:53.049Z,8.43
2019-01-27T02:13:22.548Z,8.50
2019-01-27T02:16:05.917Z,8.49
2019-01-27T02:18:35.919Z,8.37
2019-01-27T02:21:06.238Z,8.25
2019-01-27T02:23:35.854Z,8.26
2019-01-27T02:26:06.787Z,8.11
2019-01-27T02:28:36.374Z,8.17
2019-01-27T02:31:06.501Z,8.16
2019-01-27T02:33:35.975Z,8.08
2019-01-27T02:36:05.835Z,8.15
2019-01-27T02:38:35.304Z,8.07
2019-01-27T02:41:05.071Z,7.97
2019-01-27T02:43:34.639Z,7.98
2019-01-27T02:46:04.391Z,8.05
2019-01-27T02:48:33.858Z,8.02
2019-01-27T02:51:03.338Z,8.08
2019-01-27T02:53:32.810Z,8.17
2019-01-27T02:56:02.291Z,8.14
2019-01-27T02:58:31.753Z,8.15
2019-01-27T03:01:01.255Z,8.11
2019-01-27T03:03:30.727Z,8.11
2019-01-27T03:06:05.966Z,8.05
2019-01-27T03:08:39.009Z,8.04
2019-01-27T03:11:08.502Z,8.01
2019-01-27T03:13:38.052Z,7.94
2019-01-27T03:16:07.602Z,7.89
2019-01-27T03:18:37.088Z,8.00
2019-01-27T03:21:06.550Z,7.88
2019-01-27T03:23:36.037Z,7.90
2019-01-27T03:26:05.661Z,7.94
2019-01-27T03:28:35.172Z,7.88
2019-01-27T03:31:04.705Z,7.91
2019-01-27T03:33:34.194Z,7.95
2019-01-27T03:36:03.691Z,7.82
2019-01-27T03:38:33.187Z,7.84
2019-01-27T03:41:02.810Z,7.71
2019-01-27T03:43:32.306Z,7.80
2019-01-27T03:46:01.780Z,7.89
2019-01-27T03:48:31.267Z,7.93
2019-01-27T03:51:00.748Z,7.93
2019-01-27T03:53:30.255Z,8.00
2019-01-27T03:55:59.757Z,8.06
2019-01-27T03:58:29.235Z,7.96
2019-01-27T04:00:59.839Z,7.91
2019-01-27T04:03:29.317Z,7.75
2019-01-27T04:05:58.802Z,7.73
2019-01-27T04:08:28.300Z,7.68
2019-01-27T04:10:57.774Z,7.65
2019-01-27T04:13:27.251Z,7.66
2019-01-27T04:15:56.722Z,7.64
2019-01-27T04:18:26.281Z,7.62
2019-01-27T04:20:55.788Z,7.59
2019-01-27T04:23:25.360Z,7.63
2019-01-27T04:25:54.834Z,7.54
2019-01-27T04:28:24.317Z,7.55
2019-01-27T04:30:53.784Z,7.54
2019-01-27T04:33:23.283Z,7.55
2019-01-27T04:35:52.755Z,7.51
2019-01-27T04:38:22.242Z,7.45
2019-01-27T04:40:51.708Z,7.46
2019-01-27T04:43:21.200Z,7.46
2019-01-27T04:45:50.698Z,7.42
2019-01-27T04:48:20.184Z,7.44
2019-01-27T04:50:49.674Z,7.42
2019-01-27T04:53:19.160Z,7.41
2019-01-27T04:55:48.640Z,7.49
2019-01-27T04:58:18.169Z,7.54
2019-01-27T05:00:47.669Z,7.53
2019-01-27T05:03:48.347Z,7.59
2019-01-27T05:06:17.844Z,7.62
2019-01-27T05:08:47.327Z,7.62
2019-01-27T05:11:16.802Z,7.59
2019-01-27T05:13:46.277Z,7.62
2019-01-27T05:16:15.776Z,7.67
2019-01-27T05:18:45.531Z,7.73
2019-01-27T05:21:15.062Z,7.60
2019-01-27T05:23:44.510Z,7.76
2019-01-27T05:26:13.998Z,7.85
2019-01-27T05:28:43.504Z,7.91
2019-01-27T05:31:12.985Z,7.86
2019-01-27T05:33:43.435Z,7.84
2019-01-27T05:36:12.925Z,7.83
2019-01-27T05:38:42.412Z,7.74
2019-01-27T05:41:11.888Z,7.75
2019-01-27T05:43:41.384Z,7.75
2019-01-27T05:46:10.863Z,7.68
2019-01-27T05:48:41.109Z,7.69
2019-01-27T05:51:10.610Z,7.73
2019-01-27T05:53:40.079Z,7.64
2019-01-27T05:56:09.564Z,7.57
2019-01-27T05:58:39.035Z,7.52
2019-01-27T06:01:08.511Z,7.50
2019-01-27T06:03:37.994Z,7.54
2019-01-27T06:06:07.496Z,7.51
2019-01-27T06:08:37.953Z,7.51
2019-01-27T06:11:07.442Z,7.42
2019-01-27T06:13:36.924Z,7.36
2019-01-27T06:16:06.407Z,7.41
2019-01-27T06:18:35.890Z,7.53
2019-01-27T06:21:05.489Z,7.57
2019-01-27T06:23:35.057Z,7.49
2019-01-27T06:26:04.567Z,7.41
2019-01-27T06:28:34.057Z,7.39
2019-01-27T06:31:03.617Z,7.45
2019-01-27T06:33:40.897Z,7.42
2019-01-27T06:36:10.366Z,7.37
2019-01-27T06:38:39.918Z,7.39
2019-01-27T06:41:09.390Z,7.44
2019-01-27T06:43:38.900Z,7.53
2019-01-27T06:46:08.413Z,7.59
2019-01-27T06:48:37.906Z,7.43
2019-01-27T06:51:07.387Z,7.56
2019-01-27T06:53:37.451Z,7.62
2019-01-27T06:56:07.026Z,7.57
2019-01-27T06:58:54.278Z,7.59
2019-01-27T07:01:31.304Z,7.66
2019-01-27T07:04:18.861Z,7.70
2019-01-27T07:06:56.831Z,7.51
2019-01-27T07:09:36.739Z,7.50
2019-01-27T07:12:43.486Z,7.46
2019-01-27T07:15:30.810Z,7.48
2019-01-27T07:18:09.985Z,7.43
2019-01-27T07:20:57.409Z,7.28
2019-01-27T07:23:44.886Z,7.37
2019-01-27T07:26:36.231Z,7.36
2019-01-27T07:29:31.283Z,7.36
2019-01-27T07:32:25.987Z,7.37
2019-01-27T07:35:08.255Z,7.27
2019-01-27T07:37:44.966Z,7.25
2019-01-27T07:40:36.520Z,7.34
2019-01-27T07:43:24.209Z,7.40
2019-01-27T07:46:11.688Z,7.43
2019-01-27T07:48:58.915Z,7.52
2019-01-27T07:51:42.308Z,7.56
2019-01-27T07:54:20.088Z,7.53
2019-01-27T07:57:07.252Z,7.73
2019-01-27T07:59:51.257Z,7.70
2019-01-27T08:02:42.815Z,7.67
2019-01-27T08:05:23.242Z,7.73
2019-01-27T08:08:02.076Z,7.76
2019-01-27T08:10:40.396Z,7.81
2019-01-27T08:13:27.894Z,7.96
2019-01-27T08:16:25.716Z,7.90
2019-01-27T08:19:06.953Z,7.89
2019-01-27T08:21:46.121Z,7.80
2019-01-27T08:24:36.267Z,7.75
2019-01-27T08:27:25.142Z,7.74
2019-01-27T08:30:01.700Z,7.68
2019-01-27T08:32:49.155Z,7.71
2019-01-27T08:35:26.431Z,7.62
2019-01-27T08:38:09.031Z,7.54
2019-01-27T08:40:46.005Z,7.67
2019-01-27T08:43:34.568Z,7.72
2019-01-27T08:46:26.923Z,7.64
2019-01-27T08:48:56.466Z,7.79
2019-01-27T08:51:25.969Z,7.89
2019-01-27T08:53:55.485Z,7.97
2019-01-27T08:56:24.982Z,8.08
2019-01-27T08:58:54.468Z,8.24
2019-01-27T09:01:34.950Z,8.37
2019-01-27T09:04:11.151Z,8.35
2019-01-27T09:07:12.223Z,8.47
2019-01-27T09:10:03.560Z,8.56
2019-01-27T09:12:52.813Z,8.61
2019-01-27T09:15:50.550Z,8.02
2019-01-27T09:18:43.182Z,8.50
2019-01-27T09:21:21.665Z,8.65
2019-01-27T09:24:10.371Z,8.69
2019-01-27T09:26:50.320Z,8.71
2019-01-27T09:29:44.887Z,8.78
2019-01-27T09:32:25.320Z,8.85
2019-01-27T09:35:21.518Z,8.79
2019-01-27T09:38:13.152Z,8.81
2019-01-27T09:41:00.605Z,8.95
2019-01-27T09:43:48.033Z,9.03
2019-01-27T09:46:33.573Z,9.04
2019-01-27T09:49:11.410Z,8.96
2019-01-27T09:51:54.075Z,9.00
2019-01-27T09:54:40.475Z,8.94
2019-01-27T09:57:44.184Z,8.92
2019-01-27T10:00:37.136Z,8.92
2019-01-27T10:03:41.074Z,9.00
2019-01-27T10:06:32.184Z,9.01
2019-01-27T10:09:19.386Z,9.13
2019-01-27T10:12:06.695Z,9.16
2019-01-27T10:14:49.252Z,9.18
2019-01-27T10:17:40.664Z,9.22
2019-01-27T10:20:22.445Z,9.29
2019-01-27T10:23:09.910Z,9.34
2019-01-27T10:25:46.846Z,9.39
2019-01-27T10:28:35.183Z,9.38
2019-01-27T10:31:10.352Z,9.20
2019-01-27T10:34:01.889Z,9.36
2019-01-27T10:36:48.950Z,9.43
2019-01-27T10:39:37.478Z,9.53
2019-01-27T10:42:18.815Z,9.50
2019-01-27T10:45:10.526Z,9.59
2019-01-27T10:48:00.014Z,9.49
2019-01-27T10:50:45.192Z,9.43
2019-01-27T10:53:25.531Z,9.40
2019-01-27T10:56:01.183Z,9.35
2019-01-27T10:58:47.365Z,9.38
2019-01-27T11:01:30.812Z,9.46
2019-01-27T11:04:31.685Z,9.40
2019-01-27T11:07:19.056Z,9.36
2019-01-27T11:10:10.737Z,9.36
2019-01-27T11:13:00.770Z,9.42
2019-01-27T11:15:41.038Z,9.51
2019-01-27T11:18:38.679Z,9.58
2019-01-27T11:21:14.353Z,9.62
2019-01-27T11:24:15.069Z,9.75
2019-01-27T11:27:03.459Z,9.85
2019-01-27T11:29:49.342Z,9.84
2019-01-27T11:32:44.932Z,9.80
2019-01-27T11:35:23.058Z,9.83
2019-01-27T11:38:02.988Z,10.22
2019-01-27T11:40:50.188Z,10.75
2019-01-27T11:43:41.498Z,11.26
2019-01-27T11:46:17.388Z,11.44
2019-01-27T11:49:08.751Z,11.48
2019-01-27T11:51:45.586Z,11.09
2019-01-27T11:54:15.097Z,10.62
2019-01-27T11:56:44.638Z,10.48
2019-01-27T11:59:14.349Z,10.40
2019-01-27T12:01:43.845Z,10.29
2019-01-27T12:04:13.364Z,10.30
2019-01-27T12:06:44.843Z,10.34
2019-01-27T12:09:14.499Z,10.28
2019-01-27T12:11:44.012Z,10.24
2019-01-27T12:14:13.493Z,10.27
2019-01-27T12:16:42.997Z,10.24
2019-01-27T12:19:12.473Z,10.18
2019-01-27T12:21:42.953Z,10.14
2019-01-27T12:24:12.441Z,10.10
2019-01-27T12:26:41.958Z,10.18
2019-01-27T12:29:11.452Z,10.16
2019-01-27T12:31:40.981Z,10.07
2019-01-27T12:34:10.468Z,10.14
2019-01-27T12:36:39.940Z,10.10
2019-01-27T12:39:10.225Z,9.97
2019-01-27T12:41:39.728Z,9.98
2019-01-27T12:44:09.220Z,9.95
2019-01-27T12:46:38.807Z,9.92
2019-01-27T12:49:08.300Z,9.94
2019-01-27T12:51:37.818Z,9.88
2019-01-27T12:54:08.402Z,9.78
2019-01-27T12:56:37.980Z,9.85
2019-01-27T12:59:07.477Z,9.83
2019-01-27T13:01:37.025Z,9.84
2019-01-27T13:04:06.587Z,9.80
2019-01-27T13:06:36.086Z,9.68
2019-01-27T13:09:08.004Z,9.63
2019-01-27T13:11:37.573Z,9.51
2019-01-27T13:14:07.159Z,9.56
2019-01-27T13:16:36.652Z,9.72
2019-01-27T13:19:06.124Z,9.66
2019-01-27T13:21:35.639Z,9.80
2019-01-27T13:24:05.189Z,9.90
2019-01-27T13:26:35.746Z,9.86
2019-01-27T13:29:05.248Z,9.96
2019-01-27T13:31:34.743Z,9.94
2019-01-27T13:34:04.285Z,9.96
2019-01-27T13:36:33.776Z,9.93
2019-01-27T13:39:03.931Z,9.92
2019-01-27T13:41:34.587Z,9.97
2019-01-27T13:44:04.177Z,9.79
2019-01-27T13:46:33.692Z,9.87
2019-01-27T13:49:03.166Z,9.83
2019-01-27T13:51:32.689Z,9.80
2019-01-27T13:54:02.191Z,9.76
2019-01-27T13:56:31.768Z,9.62
2019-01-27T13:59:01.247Z,9.53
2019-01-27T14:01:30.784Z,9.53
2019-01-27T14:04:00.262Z,9.52
2019-01-27T14:06:29.732Z,9.46
2019-01-27T14:08:59.225Z,9.52
2019-01-27T14:11:28.699Z,9.56
2019-01-27T14:13:58.178Z,9.49
2019-01-27T14:16:27.643Z,9.39
2019-01-27T14:18:57.401Z,9.31
2019-01-27T14:21:26.932Z,9.33
2019-01-27T14:23:56.412Z,9.27
2019-01-27T14:26:25.901Z,9.24
2019-01-27T14:28:55.381Z,9.21
2019-01-27T14:31:24.843Z,9.24
2019-01-27T14:33:54.337Z,9.22
2019-01-27T14:36:23.884Z,9.24
2019-01-27T14:38:53.375Z,9.22
2019-01-27T14:41:22.857Z,9.21
2019-01-27T14:43:52.366Z,9.26
2019-01-27T14:46:21.861Z,9.40
2019-01-27T14:48:51.387Z,9.35
2019-01-27T14:51:20.898Z,9.16
2019-01-27T14:53:50.436Z,9.21
2019-01-27T14:56:19.935Z,9.27
2019-01-27T14:58:49.436Z,9.20
2019-01-27T15:01:19.087Z,9.17
2019-01-27T15:03:48.564Z,9.16
2019-01-27T15:06:18.905Z,9.19
2019-01-27T15:08:48.381Z,9.17
2019-01-27T15:11:17.852Z,9.23
2019-01-27T15:13:47.336Z,9.21
2019-01-27T15:16:16.820Z,9.19
2019-01-27T15:18:46.404Z,9.17
2019-01-27T15:21:22.672Z,9.30
2019-01-27T15:23:52.173Z,9.25
2019-01-27T15:26:21.652Z,9.23
2019-01-27T15:28:51.152Z,9.20
2019-01-27T15:31:20.833Z,9.15
2019-01-27T15:33:50.344Z,9.17
2019-01-27T15:36:19.826Z,9.16
2019-01-27T15:38:49.446Z,9.19
2019-01-27T15:41:18.923Z,9.25
2019-01-27T15:43:48.937Z,9.07
2019-01-27T15:46:18.623Z,9.00
2019-01-27T15:48:49.073Z,9.09
2019-01-27T15:51:18.559Z,9.09
2019-01-27T15:53:48.038Z,9.16
2019-01-27T15:56:17.523Z,9.10
2019-01-27T15:58:47.018Z,9.21
2019-01-27T16:01:17.056Z,9.09
2019-01-27T16:03:46.708Z,9.07
2019-01-27T16:06:16.193Z,9.22
2019-01-27T16:08:45.683Z,9.23
2019-01-27T16:11:15.271Z,9.19
2019-01-27T16:13:44.845Z,9.00
2019-01-27T16:16:14.336Z,8.95
2019-01-27T16:18:43.881Z,8.90
2019-01-27T16:21:13.494Z,8.87
2019-01-27T16:23:55.642Z,8.88
2019-01-27T16:26:25.343Z,8.82
2019-01-27T16:28:54.898Z,8.88
2019-01-27T16:31:52.588Z,8.97
2019-01-27T16:34:27.761Z,8.92
2019-01-27T16:36:57.382Z,8.68
2019-01-27T16:39:26.890Z,8.63
2019-01-27T16:41:57.345Z,8.67
2019-01-27T16:44:27.914Z,8.65
2019-01-27T16:46:57.464Z,8.62
2019-01-27T16:49:26.946Z,8.64
2019-01-27T16:51:57.395Z,8.67
2019-01-27T16:54:26.907Z,8.64
2019-01-27T16:56:56.744Z,8.48
2019-01-27T16:59:26.628Z,8.59
2019-01-27T17:01:58.999Z,8.64
2019-01-27T17:04:27.363Z,8.73
2019-01-27T17:06:56.852Z,8.77
2019-01-27T17:09:26.344Z,8.81
2019-01-27T17:11:55.876Z,8.82
2019-01-27T17:14:25.345Z,8.64
2019-01-27T17:16:54.815Z,8.60
2019-01-27T17:19:24.385Z,8.58
2019-01-27T17:21:53.883Z,8.53
2019-01-27T17:24:23.420Z,8.59
2019-01-27T17:26:53.018Z,8.64
2019-01-27T17:29:22.982Z,8.75
2019-01-27T17:31:52.540Z,8.79
2019-01-27T17:34:22.047Z,8.75
2019-01-27T17:36:52.570Z,8.80
2019-01-27T17:39:22.070Z,8.86
2019-01-27T17:41:51.569Z,8.88
2019-01-27T17:44:21.303Z,8.90
2019-01-27T17:46:50.813Z,8.84
2019-01-27T17:49:20.335Z,8.90
2019-01-27T17:51:49.923Z,8.93
2019-01-27T17:54:19.417Z,8.84
2019-01-27T17:56:58.558Z,8.79
2019-01-27T17:59:34.619Z,8.69
2019-01-27T18:02:24.669Z,8.63
2019-01-27T18:05:06.348Z,8.72
2019-01-27T18:07:54.874Z,8.67
2019-01-27T18:10:42.600Z,8.40
2019-01-27T18:13:15.845Z,8.30
2019-01-27T18:15:45.330Z,8.02
2019-01-27T18:18:14.861Z,7.96
2019-01-27T18:20:44.414Z,8.11
2019-01-27T18:23:13.958Z,8.03
2019-01-27T18:25:43.461Z,8.15
2019-01-27T18:28:12.926Z,7.86
2019-01-27T18:30:42.609Z,7.74
2019-01-27T18:33:12.108Z,7.76
2019-01-27T18:35:41.579Z,7.86
2019-01-27T18:38:11.267Z,7.71
2019-01-27T18:40:40.864Z,7.52
2019-01-27T18:43:10.346Z,7.81
2019-01-27T18:45:40.050Z,7.74
2019-01-27T18:48:09.662Z,7.77
2019-01-27T18:50:39.354Z,7.88
2019-01-27T18:53:20.738Z,7.78
2019-01-27T18:56:09.515Z,7.68
2019-01-27T18:59:03.774Z,7.75
2019-01-27T19:01:55.193Z,7.55
2019-01-27T19:04:30.331Z,7.75
2019-01-27T19:07:17.704Z,7.83
2019-01-27T19:10:12.863Z,7.97
2019-01-27T19:13:01.393Z,8.01
2019-01-27T19:15:49.259Z,7.96
2019-01-27T19:18:50.258Z,7.88
2019-01-27T19:21:31.720Z,7.88
2019-01-27T19:24:27.839Z,7.94
2019-01-27T19:27:12.673Z,7.72
2019-01-27T19:29:59.861Z,7.96
2019-01-27T19:32:39.634Z,7.99
2019-01-27T19:35:31.410Z,8.03
2019-01-27T19:38:07.426Z,8.13
2019-01-27T19:40:45.212Z,8.11
2019-01-27T19:43:26.612Z,7.81
2019-01-27T19:46:01.914Z,7.99
2019-01-27T19:48:53.338Z,7.80
2019-01-27T19:51:33.508Z,7.88
2019-01-27T19:54:19.512Z,7.85
2019-01-27T19:57:05.513Z,7.80
2019-01-27T19:59:52.838Z,7.64
2019-01-27T20:02:53.510Z,7.62
2019-01-27T20:05:32.380Z,7.66
2019-01-27T20:08:39.392Z,7.70
2019-01-27T20:11:40.168Z,7.72
2019-01-27T20:14:32.562Z,7.76
2019-01-27T20:17:19.800Z,7.83
2019-01-27T20:20:04.144Z,7.89
2019-01-27T20:22:39.566Z,7.87
2019-01-27T20:25:27.230Z,7.80
2019-01-27T20:28:21.738Z,7.85
2019-01-27T20:30:59.999Z,7.95
2019-01-27T20:33:46.128Z,7.98
2019-01-27T20:36:40.874Z,8.09
2019-01-27T20:39:32.522Z,8.05
2019-01-27T20:42:17.682Z,8.00
2019-01-27T20:45:02.772Z,7.82
2019-01-27T20:47:42.704Z,7.76
2019-01-27T20:50:19.300Z,7.75
2019-01-27T20:53:17.228Z,7.76
2019-01-27T20:56:04.817Z,7.73
2019-01-27T20:58:50.588Z,7.66
2019-01-27T21:01:42.204Z,7.72
2019-01-27T21:04:46.105Z,7.73
2019-01-27T21:07:24.414Z,7.79
2019-01-27T21:09:59.375Z,7.67
2019-01-27T21:12:47.905Z,7.63
2019-01-27T21:15:26.009Z,7.67
2019-01-27T21:18:13.522Z,7.59
2019-01-27T21:20:43.065Z,7.54
2019-01-27T21:23:12.663Z,7.62
2019-01-27T21:25:42.195Z,7.49
2019-01-27T21:28:11.757Z,7.46
2019-01-27T21:30:41.293Z,7.36
2019-01-27T21:33:10.890Z,7.45
2019-01-27T21:35:40.376Z,7.42
2019-01-27T21:38:09.867Z,7.48
2019-01-27T21:40:39.383Z,7.56
2019-01-27T21:43:08.867Z,7.41
2019-01-27T21:45:38.349Z,7.37
2019-01-27T21:48:07.852Z,7.40
2019-01-27T21:50:37.444Z,7.35
2019-01-27T21:53:07.029Z,7.38
2019-01-27T21:55:36.624Z,7.45
2019-01-27T21:58:06.187Z,7.54
2019-01-27T22:00:35.692Z,7.54
2019-01-27T22:03:05.368Z,7.45
2019-01-27T22:05:34.888Z,7.40
2019-01-27T22:08:04.467Z,7.33
2019-01-27T22:10:34.048Z,7.37
2019-01-27T22:13:03.536Z,7.32
2019-01-27T22:15:33.038Z,7.28
2019-01-27T22:18:02.577Z,7.26
2019-01-27T22:20:32.106Z,7.13
2019-01-27T22:23:01.712Z,7.04
2019-01-27T22:25:32.266Z,7.00
2019-01-27T22:28:01.741Z,6.81
2019-01-27T22:30:32.106Z,6.77
2019-01-27T22:33:01.579Z,6.75
2019-01-27T22:35:31.056Z,6.77
2019-01-27T22:38:00.594Z,6.90
2019-01-27T22:40:30.091Z,6.83
2019-01-27T22:42:59.599Z,6.85
2019-01-27T22:45:29.123Z,6.83
2019-01-27T22:47:58.615Z,6.78
2019-01-27T22:50:28.112Z,6.86
2019-01-27T22:52:57.604Z,6.73
2019-01-27T22:55:27.113Z,6.76
2019-01-27T22:57:56.621Z,6.57
2019-01-27T23:00:54.228Z,6.57
2019-01-27T23:03:23.877Z,6.59
2019-01-27T23:05:54.334Z,6.40
2019-01-27T23:08:23.974Z,6.51
2019-01-27T23:10:53.503Z,6.52
2019-01-27T23:13:23.046Z,6.54
2019-01-27T23:15:52.534Z,6.59
2019-01-27T23:18:22.082Z,6.65
2019-01-27T23:20:51.556Z,6.75
2019-01-27T23:23:21.119Z,6.67
2019-01-27T23:25:51.568Z,6.72
2019-01-27T23:28:21.061Z,6.72
2019-01-27T23:30:50.535Z,6.74
2019-01-27T23:33:20.012Z,6.71
2019-01-27T23:35:49.494Z,6.77
2019-01-27T23:38:19.051Z,6.62
2019-01-27T23:40:48.532Z,6.60
2019-01-27T23:43:18.031Z,6.56
2019-01-27T23:45:47.590Z,6.49
2019-01-27T23:48:17.085Z,6.39
2019-01-27T23:50:46.634Z,6.31
2019-01-27T23:53:16.116Z,6.29
2019-01-27T23:55:45.590Z,6.31
2019-01-27T23:58:15.139Z,6.21
